sensor_id;sensor_type;location;lat;lon;timestamp;P1;durP1;ratioP1;P2;durP2;ratioP2
3193;SDS011;1608;50.860;13.466;2023-01-28T00:01:27;51.60;;;19.87;;
3193;SDS011;1608;50.860;13.466;2023-01-28T00:03:53;37.93;;;18.40;;
3193;SDS011;1608;50.860;13.466;2023-01-28T00:06:20;26.77;;;13.60;;
3193;SDS011;1608;50.860;13.466;2023-01-28T00:08:47;41.87;;;19.57;;
3193;SDS011;1608;50.860;13.466;2023-01-28T00:11:14;21.53;;;8.90;;
3193;SDS011;1608;50.860;13.466;2023-01-28T00:13:41;41.27;;;19.13;;
3193;SDS011;1608;50.860;13.466;2023-01-28T00:16:09;40.40;;;15.17;;
3193;SDS011;1608;50.860;13.466;2023-01-28T00:18:36;43.50;;;16.20;;
3193;SDS011;1608;50.860;13.466;2023-01-28T00:21:03;44.07;;;19.27;;
3193;SDS011;1608;50.860;13.466;2023-01-28T00:23:32;47.47;;;20.73;;
3193;SDS011;1608;50.860;13.466;2023-01-28T00:26:02;21.53;;;10.30;;
3193;SDS011;1608;50.860;13.466;2023-01-28T00:28:30;38.90;;;18.13;;
3193;SDS011;1608;50.860;13.466;2023-01-28T00:30:57;42.53;;;17.60;;
3193;SDS011;1608;50.860;13.466;2023-01-28T00:33:25;27.93;;;12.40;;
3193;SDS011;1608;50.860;13.466;2023-01-28T00:35:56;23.60;;;11.30;;
3193;SDS011;1608;50.860;13.466;2023-01-28T00:38:25;28.33;;;11.43;;
3193;SDS011;1608;50.860;13.466;2023-01-28T00:40:52;25.63;;;11.23;;
3193;SDS011;1608;50.860;13.466;2023-01-28T00:43:19;20.00;;;9.20;;
3193;SDS011;1608;50.860;13.466;2023-01-28T00:45:46;20.83;;;8.43;;
3193;SDS011;1608;50.860;13.466;2023-01-28T00:48:12;19.70;;;10.23;;
3193;SDS011;1608;50.860;13.466;2023-01-28T00:50:41;12.37;;;5.40;;
3193;SDS011;1608;50.860;13.466;2023-01-28T00:53:08;7.97;;;4.27;;
3193;SDS011;1608;50.860;13.466;2023-01-28T00:55:35;12.50;;;5.40;;
3193;SDS011;1608;50.860;13.466;2023-01-28T00:58:02;2.57;;;1.83;;
3193;SDS011;1608;50.860;13.466;2023-01-28T01:00:28;4.83;;;3.00;;
3193;SDS011;1608;50.860;13.466;2023-01-28T01:02:55;10.30;;;4.40;;
3193;SDS011;1608;50.860;13.466;2023-01-28T01:05:22;11.07;;;4.90;;
3193;SDS011;1608;50.860;13.466;2023-01-28T01:07:50;6.30;;;4.00;;
3193;SDS011;1608;50.860;13.466;2023-01-28T01:10:18;6.83;;;5.03;;
3193;SDS011;1608;50.860;13.466;2023-01-28T01:12:45;3.63;;;2.90;;
3193;SDS011;1608;50.860;13.466;2023-01-28T01:15:12;6.63;;;3.60;;
3193;SDS011;1608;50.860;13.466;2023-01-28T01:17:40;1.90;;;1.80;;
3193;SDS011;1608;50.860;13.466;2023-01-28T01:20:11;5.40;;;3.37;;
3193;SDS011;1608;50.860;13.466;2023-01-28T01:22:39;5.13;;;2.40;;
3193;SDS011;1608;50.860;13.466;2023-01-28T01:25:08;4.53;;;3.40;;
3193;SDS011;1608;50.860;13.466;2023-01-28T01:27:35;3.13;;;2.47;;
3193;SDS011;1608;50.860;13.466;2023-01-28T01:30:02;6.03;;;4.00;;
3193;SDS011;1608;50.860;13.466;2023-01-28T01:32:31;3.80;;;2.93;;
3193;SDS011;1608;50.860;13.466;2023-01-28T01:34:59;5.83;;;4.23;;
3193;SDS011;1608;50.860;13.466;2023-01-28T01:37:26;5.50;;;3.93;;
3193;SDS011;1608;50.860;13.466;2023-01-28T01:39:52;8.80;;;5.13;;
3193;SDS011;1608;50.860;13.466;2023-01-28T01:42:21;9.37;;;4.53;;
3193;SDS011;1608;50.860;13.466;2023-01-28T01:44:56;9.63;;;5.73;;
3193;SDS011;1608;50.860;13.466;2023-01-28T01:47:26;9.27;;;5.37;;
3193;SDS011;1608;50.860;13.466;2023-01-28T01:49:59;14.13;;;7.80;;
3193;SDS011;1608;50.860;13.466;2023-01-28T01:52:30;18.00;;;8.20;;
3193;SDS011;1608;50.860;13.466;2023-01-28T01:55:00;9.33;;;6.17;;
3193;SDS011;1608;50.860;13.466;2023-01-28T01:57:32;12.40;;;6.77;;
3193;SDS011;1608;50.860;13.466;2023-01-28T02:00:02;19.13;;;9.70;;
3193;SDS011;1608;50.860;13.466;2023-01-28T02:02:32;14.80;;;7.90;;
3193;SDS011;1608;50.860;13.466;2023-01-28T02:05:03;16.03;;;8.70;;
3193;SDS011;1608;50.860;13.466;2023-01-28T02:07:31;17.17;;;9.20;;
3193;SDS011;1608;50.860;13.466;2023-01-28T02:09:58;8.00;;;4.50;;
3193;SDS011;1608;50.860;13.466;2023-01-28T02:12:26;11.23;;;6.57;;
3193;SDS011;1608;50.860;13.466;2023-01-28T02:15:02;14.53;;;6.77;;
3193;SDS011;1608;50.860;13.466;2023-01-28T02:17:32;12.03;;;6.93;;
3193;SDS011;1608;50.860;13.466;2023-01-28T02:20:01;9.23;;;5.63;;
3193;SDS011;1608;50.860;13.466;2023-01-28T02:22:44;9.63;;;4.97;;
3193;SDS011;1608;50.860;13.466;2023-01-28T02:28:35;8.13;;;4.50;;
3193;SDS011;1608;50.860;13.466;2023-01-28T02:31:08;16.57;;;7.53;;
3193;SDS011;1608;50.860;13.466;2023-01-28T02:33:41;13.27;;;6.73;;
3193;SDS011;1608;50.860;13.466;2023-01-28T02:36:16;7.70;;;4.87;;
3193;SDS011;1608;50.860;13.466;2023-01-28T02:38:49;12.17;;;6.60;;
3193;SDS011;1608;50.860;13.466;2023-01-28T02:41:20;8.20;;;4.00;;
3193;SDS011;1608;50.860;13.466;2023-01-28T02:43:51;15.67;;;7.37;;
3193;SDS011;1608;50.860;13.466;2023-01-28T02:46:21;10.80;;;6.80;;
3193;SDS011;1608;50.860;13.466;2023-01-28T02:49:18;7.80;;;5.90;;
3193;SDS011;1608;50.860;13.466;2023-01-28T02:51:59;5.27;;;3.10;;
3193;SDS011;1608;50.860;13.466;2023-01-28T02:54:41;11.27;;;6.00;;
3193;SDS011;1608;50.860;13.466;2023-01-28T02:57:19;13.53;;;5.23;;
3193;SDS011;1608;50.860;13.466;2023-01-28T02:59:58;6.50;;;4.50;;
3193;SDS011;1608;50.860;13.466;2023-01-28T03:02:30;14.50;;;7.00;;
3193;SDS011;1608;50.860;13.466;2023-01-28T03:05:02;5.13;;;2.80;;
3193;SDS011;1608;50.860;13.466;2023-01-28T03:07:32;8.17;;;4.10;;
3193;SDS011;1608;50.860;13.466;2023-01-28T03:10:03;10.50;;;4.87;;
3193;SDS011;1608;50.860;13.466;2023-01-28T03:12:31;15.80;;;6.83;;
3193;SDS011;1608;50.860;13.466;2023-01-28T03:15:20;11.07;;;6.07;;
3193;SDS011;1608;50.860;13.466;2023-01-28T03:18:07;16.33;;;8.67;;
3193;SDS011;1608;50.860;13.466;2023-01-28T03:20:56;12.23;;;6.27;;
3193;SDS011;1608;50.860;13.466;2023-01-28T03:23:46;18.30;;;10.10;;
3193;SDS011;1608;50.860;13.466;2023-01-28T03:26:37;9.17;;;5.40;;
3193;SDS011;1608;50.860;13.466;2023-01-28T03:29:27;14.27;;;7.37;;
3193;SDS011;1608;50.860;13.466;2023-01-28T03:32:15;16.23;;;8.60;;
3193;SDS011;1608;50.860;13.466;2023-01-28T03:35:01;20.47;;;9.83;;
3193;SDS011;1608;50.860;13.466;2023-01-28T03:37:46;13.13;;;8.60;;
3193;SDS011;1608;50.860;13.466;2023-01-28T03:40:13;16.43;;;9.20;;
3193;SDS011;1608;50.860;13.466;2023-01-28T03:42:40;15.87;;;8.07;;
3193;SDS011;1608;50.860;13.466;2023-01-28T03:45:07;6.30;;;3.30;;
3193;SDS011;1608;50.860;13.466;2023-01-28T03:47:36;20.87;;;7.97;;
3193;SDS011;1608;50.860;13.466;2023-01-28T03:50:04;6.67;;;4.13;;
3193;SDS011;1608;50.860;13.466;2023-01-28T03:52:32;12.60;;;6.40;;
3193;SDS011;1608;50.860;13.466;2023-01-28T03:54:59;6.80;;;4.40;;
3193;SDS011;1608;50.860;13.466;2023-01-28T03:57:37;7.40;;;3.87;;
3193;SDS011;1608;50.860;13.466;2023-01-28T04:00:04;14.07;;;7.03;;
3193;SDS011;1608;50.860;13.466;2023-01-28T04:02:34;17.20;;;9.00;;
3193;SDS011;1608;50.860;13.466;2023-01-28T04:05:06;8.47;;;4.27;;
3193;SDS011;1608;50.860;13.466;2023-01-28T04:07:36;2.50;;;1.90;;
3193;SDS011;1608;50.860;13.466;2023-01-28T04:10:04;18.07;;;9.73;;
3193;SDS011;1608;50.860;13.466;2023-01-28T04:12:32;9.87;;;6.40;;
3193;SDS011;1608;50.860;13.466;2023-01-28T04:15:01;12.83;;;7.50;;
3193;SDS011;1608;50.860;13.466;2023-01-28T04:17:39;10.70;;;5.17;;
3193;SDS011;1608;50.860;13.466;2023-01-28T04:20:10;11.90;;;8.20;;
3193;SDS011;1608;50.860;13.466;2023-01-28T04:22:38;12.70;;;9.23;;
3193;SDS011;1608;50.860;13.466;2023-01-28T04:25:05;17.13;;;10.20;;
3193;SDS011;1608;50.860;13.466;2023-01-28T04:27:32;17.60;;;9.07;;
3193;SDS011;1608;50.860;13.466;2023-01-28T04:29:59;17.37;;;10.30;;
3193;SDS011;1608;50.860;13.466;2023-01-28T04:32:30;7.27;;;5.37;;
3193;SDS011;1608;50.860;13.466;2023-01-28T04:34:57;18.33;;;9.43;;
3193;SDS011;1608;50.860;13.466;2023-01-28T04:37:25;11.73;;;7.13;;
3193;SDS011;1608;50.860;13.466;2023-01-28T04:39:52;13.17;;;7.67;;
3193;SDS011;1608;50.860;13.466;2023-01-28T04:42:18;20.70;;;8.63;;
3193;SDS011;1608;50.860;13.466;2023-01-28T04:44:45;15.70;;;7.50;;
3193;SDS011;1608;50.860;13.466;2023-01-28T04:47:12;19.27;;;10.13;;
3193;SDS011;1608;50.860;13.466;2023-01-28T04:49:39;14.17;;;9.00;;
3193;SDS011;1608;50.860;13.466;2023-01-28T04:52:06;14.73;;;8.47;;
3193;SDS011;1608;50.860;13.466;2023-01-28T04:54:34;11.90;;;7.13;;
3193;SDS011;1608;50.860;13.466;2023-01-28T04:57:01;13.47;;;8.63;;
3193;SDS011;1608;50.860;13.466;2023-01-28T04:59:28;11.30;;;8.03;;
3193;SDS011;1608;50.860;13.466;2023-01-28T05:01:54;16.53;;;9.27;;
3193;SDS011;1608;50.860;13.466;2023-01-28T05:04:21;15.07;;;9.70;;
3193;SDS011;1608;50.860;13.466;2023-01-28T05:06:48;8.40;;;6.07;;
3193;SDS011;1608;50.860;13.466;2023-01-28T05:09:15;12.23;;;7.07;;
3193;SDS011;1608;50.860;13.466;2023-01-28T05:11:43;2.00;;;1.40;;
3193;SDS011;1608;50.860;13.466;2023-01-28T05:14:10;4.70;;;3.23;;
3193;SDS011;1608;50.860;13.466;2023-01-28T05:16:37;7.60;;;4.57;;
3193;SDS011;1608;50.860;13.466;2023-01-28T05:19:04;19.73;;;7.30;;
3193;SDS011;1608;50.860;13.466;2023-01-28T05:21:31;18.57;;;10.77;;
3193;SDS011;1608;50.860;13.466;2023-01-28T05:23:58;17.40;;;8.30;;
3193;SDS011;1608;50.860;13.466;2023-01-28T05:26:24;11.70;;;7.03;;
3193;SDS011;1608;50.860;13.466;2023-01-28T05:28:52;14.90;;;7.17;;
3193;SDS011;1608;50.860;13.466;2023-01-28T05:31:19;12.57;;;8.57;;
3193;SDS011;1608;50.860;13.466;2023-01-28T05:33:46;19.40;;;10.03;;
3193;SDS011;1608;50.860;13.466;2023-01-28T05:36:13;19.57;;;9.00;;
3193;SDS011;1608;50.860;13.466;2023-01-28T05:38:40;15.17;;;7.33;;
3193;SDS011;1608;50.860;13.466;2023-01-28T05:41:06;10.13;;;5.70;;
3193;SDS011;1608;50.860;13.466;2023-01-28T05:43:33;9.60;;;5.73;;
3193;SDS011;1608;50.860;13.466;2023-01-28T05:46:01;10.03;;;7.40;;
3193;SDS011;1608;50.860;13.466;2023-01-28T05:48:28;15.57;;;6.37;;
3193;SDS011;1608;50.860;13.466;2023-01-28T05:50:55;15.30;;;6.77;;
3193;SDS011;1608;50.860;13.466;2023-01-28T05:53:22;5.50;;;3.80;;
3193;SDS011;1608;50.860;13.466;2023-01-28T05:55:49;6.60;;;5.57;;
3193;SDS011;1608;50.860;13.466;2023-01-28T05:58:17;5.97;;;3.90;;
3193;SDS011;1608;50.860;13.466;2023-01-28T06:00:44;7.70;;;2.93;;
3193;SDS011;1608;50.860;13.466;2023-01-28T06:03:12;9.90;;;5.93;;
3193;SDS011;1608;50.860;13.466;2023-01-28T06:05:39;8.20;;;6.40;;
3193;SDS011;1608;50.860;13.466;2023-01-28T06:08:06;12.90;;;7.10;;
3193;SDS011;1608;50.860;13.466;2023-01-28T06:10:33;7.00;;;3.57;;
3193;SDS011;1608;50.860;13.466;2023-01-28T06:13:00;6.43;;;3.50;;
3193;SDS011;1608;50.860;13.466;2023-01-28T06:15:26;8.40;;;5.77;;
3193;SDS011;1608;50.860;13.466;2023-01-28T06:17:53;4.47;;;2.70;;
3193;SDS011;1608;50.860;13.466;2023-01-28T06:20:21;7.97;;;4.40;;
3193;SDS011;1608;50.860;13.466;2023-01-28T06:22:49;5.57;;;3.40;;
3193;SDS011;1608;50.860;13.466;2023-01-28T06:25:16;7.73;;;4.60;;
3193;SDS011;1608;50.860;13.466;2023-01-28T06:27:43;5.10;;;3.73;;
3193;SDS011;1608;50.860;13.466;2023-01-28T06:30:10;7.90;;;5.70;;
3193;SDS011;1608;50.860;13.466;2023-01-28T06:32:37;3.97;;;2.40;;
3193;SDS011;1608;50.860;13.466;2023-01-28T06:35:05;6.30;;;3.80;;
3193;SDS011;1608;50.860;13.466;2023-01-28T06:37:33;8.93;;;5.57;;
3193;SDS011;1608;50.860;13.466;2023-01-28T06:40:00;6.63;;;5.43;;
3193;SDS011;1608;50.860;13.466;2023-01-28T06:42:27;6.70;;;3.90;;
3193;SDS011;1608;50.860;13.466;2023-01-28T06:44:54;9.00;;;4.70;;
3193;SDS011;1608;50.860;13.466;2023-01-28T06:47:21;2.37;;;2.20;;
3193;SDS011;1608;50.860;13.466;2023-01-28T06:49:47;5.40;;;3.77;;
3193;SDS011;1608;50.860;13.466;2023-01-28T06:52:14;8.30;;;4.67;;
3193;SDS011;1608;50.860;13.466;2023-01-28T06:54:42;7.80;;;4.20;;
3193;SDS011;1608;50.860;13.466;2023-01-28T06:57:09;3.93;;;3.10;;
3193;SDS011;1608;50.860;13.466;2023-01-28T06:59:36;5.30;;;3.37;;
3193;SDS011;1608;50.860;13.466;2023-01-28T07:02:03;3.63;;;2.63;;
3193;SDS011;1608;50.860;13.466;2023-01-28T07:04:30;2.17;;;2.00;;
3193;SDS011;1608;50.860;13.466;2023-01-28T07:06:57;10.17;;;5.10;;
3193;SDS011;1608;50.860;13.466;2023-01-28T07:09:23;3.90;;;3.60;;
3193;SDS011;1608;50.860;13.466;2023-01-28T07:11:51;7.37;;;4.83;;
3193;SDS011;1608;50.860;13.466;2023-01-28T07:14:18;5.77;;;4.27;;
3193;SDS011;1608;50.860;13.466;2023-01-28T07:16:45;6.43;;;4.87;;
3193;SDS011;1608;50.860;13.466;2023-01-28T07:19:12;16.20;;;6.20;;
3193;SDS011;1608;50.860;13.466;2023-01-28T07:21:39;11.37;;;7.00;;
3193;SDS011;1608;50.860;13.466;2023-01-28T07:24:06;5.97;;;2.93;;
3193;SDS011;1608;50.860;13.466;2023-01-28T07:26:33;8.50;;;4.10;;
3193;SDS011;1608;50.860;13.466;2023-01-28T07:29:01;4.87;;;3.20;;
3193;SDS011;1608;50.860;13.466;2023-01-28T07:31:28;4.40;;;3.33;;
3193;SDS011;1608;50.860;13.466;2023-01-28T07:33:54;7.37;;;6.00;;
3193;SDS011;1608;50.860;13.466;2023-01-28T07:36:21;14.17;;;8.00;;
3193;SDS011;1608;50.860;13.466;2023-01-28T07:38:48;10.47;;;8.47;;
3193;SDS011;1608;50.860;13.466;2023-01-28T07:41:15;11.33;;;6.97;;
3193;SDS011;1608;50.860;13.466;2023-01-28T07:43:41;35.00;;;15.70;;
3193;SDS011;1608;50.860;13.466;2023-01-28T07:46:10;50.00;;;22.37;;
3193;SDS011;1608;50.860;13.466;2023-01-28T07:48:37;37.97;;;14.50;;
3193;SDS011;1608;50.860;13.466;2023-01-28T07:51:03;16.70;;;9.60;;
3193;SDS011;1608;50.860;13.466;2023-01-28T07:53:31;13.10;;;6.43;;
3193;SDS011;1608;50.860;13.466;2023-01-28T07:55:58;5.60;;;2.80;;
3193;SDS011;1608;50.860;13.466;2023-01-28T07:58:25;3.00;;;2.60;;
3193;SDS011;1608;50.860;13.466;2023-01-28T08:00:54;3.43;;;2.43;;
3193;SDS011;1608;50.860;13.466;2023-01-28T08:03:23;16.53;;;9.47;;
3193;SDS011;1608;50.860;13.466;2023-01-28T08:05:51;31.43;;;3.00;;
3193;SDS011;1608;50.860;13.466;2023-01-28T08:08:20;6.40;;;2.97;;
3193;SDS011;1608;50.860;13.466;2023-01-28T08:10:47;8.60;;;4.87;;
3193;SDS011;1608;50.860;13.466;2023-01-28T08:13:14;7.67;;;5.00;;
3193;SDS011;1608;50.860;13.466;2023-01-28T08:15:42;6.17;;;3.90;;
3193;SDS011;1608;50.860;13.466;2023-01-28T08:18:10;4.60;;;4.10;;
3193;SDS011;1608;50.860;13.466;2023-01-28T08:20:40;10.40;;;4.00;;
3193;SDS011;1608;50.860;13.466;2023-01-28T08:23:10;10.50;;;7.00;;
3193;SDS011;1608;50.860;13.466;2023-01-28T08:25:38;7.27;;;5.80;;
3193;SDS011;1608;50.860;13.466;2023-01-28T08:28:05;5.67;;;4.90;;
3193;SDS011;1608;50.860;13.466;2023-01-28T08:30:33;8.37;;;3.80;;
3193;SDS011;1608;50.860;13.466;2023-01-28T08:33:02;4.67;;;4.23;;
3193;SDS011;1608;50.860;13.466;2023-01-28T08:35:29;8.93;;;7.37;;
3193;SDS011;1608;50.860;13.466;2023-01-28T08:37:59;25.80;;;9.70;;
3193;SDS011;1608;50.860;13.466;2023-01-28T08:40:27;12.23;;;6.43;;
3193;SDS011;1608;50.860;13.466;2023-01-28T08:42:54;9.20;;;6.10;;
3193;SDS011;1608;50.860;13.466;2023-01-28T08:45:22;8.27;;;5.53;;
3193;SDS011;1608;50.860;13.466;2023-01-28T08:47:50;4.20;;;3.33;;
3193;SDS011;1608;50.860;13.466;2023-01-28T08:50:19;3.17;;;2.83;;
3193;SDS011;1608;50.860;13.466;2023-01-28T08:52:46;8.90;;;5.03;;
3193;SDS011;1608;50.860;13.466;2023-01-28T08:55:15;11.57;;;7.37;;
3193;SDS011;1608;50.860;13.466;2023-01-28T08:57:43;4.50;;;3.97;;
3193;SDS011;1608;50.860;13.466;2023-01-28T09:00:10;14.13;;;7.20;;
3193;SDS011;1608;50.860;13.466;2023-01-28T09:02:38;9.50;;;6.20;;
3193;SDS011;1608;50.860;13.466;2023-01-28T09:05:05;11.10;;;6.97;;
3193;SDS011;1608;50.860;13.466;2023-01-28T09:07:33;12.03;;;6.37;;
3193;SDS011;1608;50.860;13.466;2023-01-28T09:10:00;17.00;;;5.50;;
3193;SDS011;1608;50.860;13.466;2023-01-28T09:12:28;6.60;;;4.70;;
3193;SDS011;1608;50.860;13.466;2023-01-28T09:14:55;6.40;;;5.07;;
3193;SDS011;1608;50.860;13.466;2023-01-28T09:17:22;10.10;;;7.70;;
3193;SDS011;1608;50.860;13.466;2023-01-28T09:19:49;7.50;;;5.20;;
3193;SDS011;1608;50.860;13.466;2023-01-28T09:22:16;5.77;;;2.87;;
3193;SDS011;1608;50.860;13.466;2023-01-28T09:24:43;2.53;;;2.33;;
3193;SDS011;1608;50.860;13.466;2023-01-28T09:27:10;1.67;;;1.57;;
3193;SDS011;1608;50.860;13.466;2023-01-28T09:29:38;9.70;;;7.33;;
3193;SDS011;1608;50.860;13.466;2023-01-28T09:32:05;6.80;;;4.13;;
3193;SDS011;1608;50.860;13.466;2023-01-28T09:34:32;5.53;;;4.10;;
3193;SDS011;1608;50.860;13.466;2023-01-28T09:36:59;5.70;;;3.43;;
3193;SDS011;1608;50.860;13.466;2023-01-28T09:39:26;14.90;;;10.30;;
3193;SDS011;1608;50.860;13.466;2023-01-28T09:41:55;16.00;;;9.40;;
3193;SDS011;1608;50.860;13.466;2023-01-28T09:44:40;20.27;;;8.77;;
3193;SDS011;1608;50.860;13.466;2023-01-28T09:47:18;13.97;;;8.00;;
3193;SDS011;1608;50.860;13.466;2023-01-28T09:49:51;19.03;;;12.00;;
3193;SDS011;1608;50.860;13.466;2023-01-28T09:52:21;12.80;;;6.60;;
3193;SDS011;1608;50.860;13.466;2023-01-28T09:54:51;5.63;;;4.37;;
3193;SDS011;1608;50.860;13.466;2023-01-28T09:57:24;8.83;;;4.00;;
3193;SDS011;1608;50.860;13.466;2023-01-28T09:59:57;5.27;;;2.10;;
3193;SDS011;1608;50.860;13.466;2023-01-28T10:02:26;4.60;;;3.03;;
3193;SDS011;1608;50.860;13.466;2023-01-28T10:05:10;12.27;;;8.00;;
3193;SDS011;1608;50.860;13.466;2023-01-28T10:07:43;14.47;;;7.13;;
3193;SDS011;1608;50.860;13.466;2023-01-28T10:10:15;6.33;;;4.47;;
3193;SDS011;1608;50.860;13.466;2023-01-28T10:12:53;8.40;;;4.43;;
3193;SDS011;1608;50.860;13.466;2023-01-28T10:15:47;2.20;;;1.70;;
3193;SDS011;1608;50.860;13.466;2023-01-28T10:18:21;3.97;;;3.57;;
3193;SDS011;1608;50.860;13.466;2023-01-28T10:20:56;5.33;;;3.73;;
3193;SDS011;1608;50.860;13.466;2023-01-28T10:23:33;3.60;;;3.03;;
3193;SDS011;1608;50.860;13.466;2023-01-28T10:26:10;4.83;;;3.70;;
3193;SDS011;1608;50.860;13.466;2023-01-28T10:28:48;4.67;;;3.27;;
3193;SDS011;1608;50.860;13.466;2023-01-28T10:31:21;6.20;;;3.80;;
3193;SDS011;1608;50.860;13.466;2023-01-28T10:33:49;2.90;;;2.20;;
3193;SDS011;1608;50.860;13.466;2023-01-28T10:36:15;2.87;;;2.57;;
3193;SDS011;1608;50.860;13.466;2023-01-28T10:38:43;6.23;;;3.27;;
3193;SDS011;1608;50.860;13.466;2023-01-28T10:41:11;3.40;;;2.70;;
3193;SDS011;1608;50.860;13.466;2023-01-28T10:43:42;7.90;;;4.10;;
3193;SDS011;1608;50.860;13.466;2023-01-28T10:46:10;2.60;;;2.40;;
3193;SDS011;1608;50.860;13.466;2023-01-28T10:48:41;5.20;;;2.50;;
3193;SDS011;1608;50.860;13.466;2023-01-28T10:51:11;3.57;;;2.93;;
3193;SDS011;1608;50.860;13.466;2023-01-28T10:53:40;6.57;;;3.53;;
3193;SDS011;1608;50.860;13.466;2023-01-28T10:56:08;56.40;;;22.57;;
3193;SDS011;1608;50.860;13.466;2023-01-28T10:58:46;6.37;;;3.00;;
3193;SDS011;1608;50.860;13.466;2023-01-28T11:01:16;4.23;;;2.30;;
3193;SDS011;1608;50.860;13.466;2023-01-28T11:03:52;3.07;;;2.83;;
3193;SDS011;1608;50.860;13.466;2023-01-28T11:06:24;61.87;;;25.03;;
3193;SDS011;1608;50.860;13.466;2023-01-28T11:08:53;20.40;;;13.43;;
3193;SDS011;1608;50.860;13.466;2023-01-28T11:11:24;2.67;;;2.47;;
3193;SDS011;1608;50.860;13.466;2023-01-28T11:13:52;26.37;;;9.97;;
3193;SDS011;1608;50.860;13.466;2023-01-28T11:16:22;39.57;;;18.63;;
3193;SDS011;1608;50.860;13.466;2023-01-28T11:18:53;47.47;;;17.53;;
3193;SDS011;1608;50.860;13.466;2023-01-28T11:21:25;36.33;;;16.30;;
3193;SDS011;1608;50.860;13.466;2023-01-28T11:23:54;27.50;;;12.30;;
3193;SDS011;1608;50.860;13.466;2023-01-28T11:26:25;17.70;;;9.63;;
3193;SDS011;1608;50.860;13.466;2023-01-28T11:28:54;5.63;;;3.10;;
3193;SDS011;1608;50.860;13.466;2023-01-28T11:31:21;8.23;;;6.00;;
3193;SDS011;1608;50.860;13.466;2023-01-28T11:33:49;5.13;;;3.80;;
3193;SDS011;1608;50.860;13.466;2023-01-28T11:36:21;5.40;;;3.60;;
3193;SDS011;1608;50.860;13.466;2023-01-28T11:38:50;7.23;;;3.70;;
3193;SDS011;1608;50.860;13.466;2023-01-28T11:41:22;4.50;;;4.10;;
3193;SDS011;1608;50.860;13.466;2023-01-28T11:43:52;2.53;;;1.93;;
3193;SDS011;1608;50.860;13.466;2023-01-28T11:46:25;7.27;;;3.87;;
3193;SDS011;1608;50.860;13.466;2023-01-28T11:49:16;7.27;;;5.23;;
3193;SDS011;1608;50.860;13.466;2023-01-28T11:51:52;6.60;;;4.37;;
3193;SDS011;1608;50.860;13.466;2023-01-28T11:54:32;4.67;;;3.93;;
3193;SDS011;1608;50.860;13.466;2023-01-28T11:57:15;6.37;;;3.60;;
3193;SDS011;1608;50.860;13.466;2023-01-28T12:02:50;5.57;;;4.13;;
3193;SDS011;1608;50.860;13.466;2023-01-28T12:05:29;4.10;;;3.60;;
3193;SDS011;1608;50.860;13.466;2023-01-28T12:08:08;3.27;;;2.30;;
3193;SDS011;1608;50.860;13.466;2023-01-28T12:10:45;7.13;;;2.43;;
3193;SDS011;1608;50.860;13.466;2023-01-28T12:13:23;4.30;;;2.30;;
3193;SDS011;1608;50.860;13.466;2023-01-28T12:16:01;10.70;;;3.00;;
3193;SDS011;1608;50.860;13.466;2023-01-28T12:18:50;5.97;;;3.00;;
3193;SDS011;1608;50.860;13.466;2023-01-28T12:21:37;5.80;;;3.83;;
3193;SDS011;1608;50.860;13.466;2023-01-28T12:24:14;4.87;;;4.13;;
3193;SDS011;1608;50.860;13.466;2023-01-28T12:26:50;4.63;;;3.10;;
3193;SDS011;1608;50.860;13.466;2023-01-28T12:29:24;4.20;;;2.67;;
3193;SDS011;1608;50.860;13.466;2023-01-28T12:32:00;6.33;;;3.10;;
3193;SDS011;1608;50.860;13.466;2023-01-28T12:35:23;10.60;;;3.80;;
3193;SDS011;1608;50.860;13.466;2023-01-28T12:38:13;8.63;;;3.57;;
3193;SDS011;1608;50.860;13.466;2023-01-28T12:40:46;9.33;;;5.23;;
3193;SDS011;1608;50.860;13.466;2023-01-28T12:43:24;6.87;;;5.00;;
3193;SDS011;1608;50.860;13.466;2023-01-28T12:46:03;20.40;;;9.13;;
3193;SDS011;1608;50.860;13.466;2023-01-28T12:48:38;9.33;;;4.40;;
3193;SDS011;1608;50.860;13.466;2023-01-28T12:51:09;5.90;;;3.90;;
3193;SDS011;1608;50.860;13.466;2023-01-28T12:53:42;25.77;;;14.57;;
3193;SDS011;1608;50.860;13.466;2023-01-28T12:56:15;6.43;;;3.73;;
3193;SDS011;1608;50.860;13.466;2023-01-28T12:58:46;5.73;;;4.67;;
3193;SDS011;1608;50.860;13.466;2023-01-28T13:01:18;4.30;;;3.03;;
3193;SDS011;1608;50.860;13.466;2023-01-28T13:03:52;4.80;;;3.80;;
3193;SDS011;1608;50.860;13.466;2023-01-28T13:06:26;12.30;;;5.90;;
3193;SDS011;1608;50.860;13.466;2023-01-28T13:08:59;7.80;;;5.60;;
3193;SDS011;1608;50.860;13.466;2023-01-28T13:11:32;8.73;;;5.63;;
3193;SDS011;1608;50.860;13.466;2023-01-28T13:14:01;5.37;;;4.30;;
3193;SDS011;1608;50.860;13.466;2023-01-28T13:16:29;6.27;;;5.47;;
3193;SDS011;1608;50.860;13.466;2023-01-28T13:19:03;8.83;;;4.87;;
3193;SDS011;1608;50.860;13.466;2023-01-28T13:21:35;12.93;;;6.70;;
3193;SDS011;1608;50.860;13.466;2023-01-28T13:24:05;5.10;;;3.60;;
3193;SDS011;1608;50.860;13.466;2023-01-28T13:27:09;5.53;;;4.50;;
3193;SDS011;1608;50.860;13.466;2023-01-28T13:29:37;4.07;;;3.40;;
3193;SDS011;1608;50.860;13.466;2023-01-28T13:34:55;4.33;;;3.97;;
3193;SDS011;1608;50.860;13.466;2023-01-28T13:37:25;7.10;;;4.47;;
3193;SDS011;1608;50.860;13.466;2023-01-28T13:39:58;6.00;;;3.80;;
3193;SDS011;1608;50.860;13.466;2023-01-28T13:42:29;8.87;;;4.67;;
3193;SDS011;1608;50.860;13.466;2023-01-28T13:45:11;12.63;;;7.07;;
3193;SDS011;1608;50.860;13.466;2023-01-28T13:47:48;5.63;;;4.80;;
3193;SDS011;1608;50.860;13.466;2023-01-28T13:50:17;6.30;;;2.83;;
3193;SDS011;1608;50.860;13.466;2023-01-28T13:52:48;8.17;;;4.90;;
3193;SDS011;1608;50.860;13.466;2023-01-28T13:55:21;4.17;;;3.60;;
3193;SDS011;1608;50.860;13.466;2023-01-28T14:07:07;8.70;;;5.43;;
3193;SDS011;1608;50.860;13.466;2023-01-28T14:09:58;8.63;;;4.83;;
3193;SDS011;1608;50.860;13.466;2023-01-28T14:12:57;6.50;;;4.57;;
3193;SDS011;1608;50.860;13.466;2023-01-28T14:15:48;8.63;;;5.77;;
3193;SDS011;1608;50.860;13.466;2023-01-28T14:18:24;3.73;;;3.40;;
3193;SDS011;1608;50.860;13.466;2023-01-28T14:20:53;6.93;;;2.43;;
3193;SDS011;1608;50.860;13.466;2023-01-28T14:23:25;11.17;;;5.20;;
3193;SDS011;1608;50.860;13.466;2023-01-28T14:26:04;9.53;;;5.30;;
3193;SDS011;1608;50.860;13.466;2023-01-28T14:28:47;8.97;;;6.33;;
3193;SDS011;1608;50.860;13.466;2023-01-28T14:31:23;5.23;;;3.80;;
3193;SDS011;1608;50.860;13.466;2023-01-28T14:33:53;6.80;;;3.30;;
3193;SDS011;1608;50.860;13.466;2023-01-28T14:36:23;10.03;;;6.53;;
3193;SDS011;1608;50.860;13.466;2023-01-28T14:38:50;9.93;;;5.67;;
3193;SDS011;1608;50.860;13.466;2023-01-28T14:41:22;12.70;;;7.37;;
3193;SDS011;1608;50.860;13.466;2023-01-28T14:43:54;9.80;;;6.10;;
3193;SDS011;1608;50.860;13.466;2023-01-28T14:46:25;11.40;;;6.30;;
3193;SDS011;1608;50.860;13.466;2023-01-28T14:49:08;12.87;;;6.10;;
3193;SDS011;1608;50.860;13.466;2023-01-28T14:51:52;10.10;;;6.13;;
3193;SDS011;1608;50.860;13.466;2023-01-28T14:54:37;8.23;;;6.20;;
3193;SDS011;1608;50.860;13.466;2023-01-28T14:57:24;9.80;;;5.93;;
3193;SDS011;1608;50.860;13.466;2023-01-28T15:00:13;11.33;;;6.60;;
3193;SDS011;1608;50.860;13.466;2023-01-28T15:02:43;9.80;;;6.83;;
3193;SDS011;1608;50.860;13.466;2023-01-28T15:05:14;8.33;;;6.67;;
3193;SDS011;1608;50.860;13.466;2023-01-28T15:07:43;16.50;;;7.37;;
3193;SDS011;1608;50.860;13.466;2023-01-28T15:10:14;14.50;;;10.57;;
3193;SDS011;1608;50.860;13.466;2023-01-28T15:12:43;12.30;;;8.90;;
3193;SDS011;1608;50.860;13.466;2023-01-28T15:15:16;17.77;;;8.43;;
3193;SDS011;1608;50.860;13.466;2023-01-28T15:17:49;17.90;;;8.57;;
3193;SDS011;1608;50.860;13.466;2023-01-28T15:20:17;12.90;;;8.60;;
3193;SDS011;1608;50.860;13.466;2023-01-28T15:22:45;12.90;;;8.60;;
3193;SDS011;1608;50.860;13.466;2023-01-28T15:25:16;13.13;;;8.77;;
3193;SDS011;1608;50.860;13.466;2023-01-28T15:27:44;16.80;;;8.80;;
3193;SDS011;1608;50.860;13.466;2023-01-28T15:30:21;12.37;;;9.00;;
3193;SDS011;1608;50.860;13.466;2023-01-28T15:32:56;9.97;;;7.17;;
3193;SDS011;1608;50.860;13.466;2023-01-28T15:35:24;11.33;;;8.60;;